Sutherland Springs, Texas
Current Conditions -  °F | °C
As of 11:58 PM on Friday 19 Dec 2014 (Local Time) from KRND Reporting Station
Overcast Overcast  
Wind Chill: 50°   Ceiling: 1200
Heat Index: 50°   Visibility: 10mi
Dew Point: 45°   Wind: 14mph
Humidity: 83%   Direction: 20°NNE
Pressure: 30.17"   Gusts: NA
Location:  29.27°N, 98.06°W
Report Text: KRND 200558Z AUTO 02012KT 10SM OVC012 10/07 A3017 RMK AO2 SLP216 T01010073 10128 20101 401720101 50002
Loading
Personal Weather Stations






























Interactive Weather Map New forecast layout! Learn more

10-Day Weather Forecast

Advertisements
Track Severe Weather on mobile